sensor_id;sensor_type;location;lat;lon;timestamp;temperature;humidity
46055;DHT22;31788;6.954;-71.872;2023-03-21T00:02:05;30.20;79.90
46055;DHT22;31788;6.954;-71.872;2023-03-21T00:04:32;30.20;80.40
46055;DHT22;31788;6.954;-71.872;2023-03-21T00:06:58;30.20;80.20
46055;DHT22;31788;6.954;-71.872;2023-03-21T00:09:25;30.10;80.40
46055;DHT22;31788;6.954;-71.872;2023-03-21T00:11:52;30.10;80.10
46055;DHT22;31788;6.954;-71.872;2023-03-21T00:14:19;30.10;80.20
46055;DHT22;31788;6.954;-71.872;2023-03-21T00:16:46;30.00;80.40
46055;DHT22;31788;6.954;-71.872;2023-03-21T00:19:19;30.10;80.50
46055;DHT22;31788;6.954;-71.872;2023-03-21T00:21:51;30.00;80.50
46055;DHT22;31788;6.954;-71.872;2023-03-21T00:24:19;30.00;80.40
46055;DHT22;31788;6.954;-71.872;2023-03-21T00:26:48;29.90;80.30
46055;DHT22;31788;6.954;-71.872;2023-03-21T00:29:16;29.90;80.30
46055;DHT22;31788;6.954;-71.872;2023-03-21T00:31:42;29.90;80.50
46055;DHT22;31788;6.954;-71.872;2023-03-21T00:34:09;29.80;80.20
46055;DHT22;31788;6.954;-71.872;2023-03-21T00:36:36;29.80;80.40
46055;DHT22;31788;6.954;-71.872;2023-03-21T00:39:03;29.80;80.40
46055;DHT22;31788;6.954;-71.872;2023-03-21T00:41:31;29.80;80.30
46055;DHT22;31788;6.954;-71.872;2023-03-21T00:43:58;29.70;80.10
46055;DHT22;31788;6.954;-71.872;2023-03-21T00:46:24;29.70;80.30
46055;DHT22;31788;6.954;-71.872;2023-03-21T00:48:51;29.70;80.30
46055;DHT22;31788;6.954;-71.872;2023-03-21T00:51:20;29.70;80.30
46055;DHT22;31788;6.954;-71.872;2023-03-21T00:53:58;29.70;80.10
46055;DHT22;31788;6.954;-71.872;2023-03-21T00:56:25;29.70;80.10
46055;DHT22;31788;6.954;-71.872;2023-03-21T00:58:52;29.70;80.10
46055;DHT22;31788;6.954;-71.872;2023-03-21T01:01:18;29.70;80.10
46055;DHT22;31788;6.954;-71.872;2023-03-21T01:03:45;29.60;80.10
46055;DHT22;31788;6.954;-71.872;2023-03-21T01:06:17;29.60;80.00
46055;DHT22;31788;6.954;-71.872;2023-03-21T01:08:47;29.60;79.90
46055;DHT22;31788;6.954;-71.872;2023-03-21T01:11:17;29.60;79.90
46055;DHT22;31788;6.954;-71.872;2023-03-21T01:13:44;29.60;79.90
46055;DHT22;31788;6.954;-71.872;2023-03-21T01:16:12;29.60;80.10
46055;DHT22;31788;6.954;-71.872;2023-03-21T01:18:40;29.50;80.00
46055;DHT22;31788;6.954;-71.872;2023-03-21T01:21:11;29.50;80.20
46055;DHT22;31788;6.954;-71.872;2023-03-21T01:23:39;29.40;80.20
46055;DHT22;31788;6.954;-71.872;2023-03-21T01:26:07;29.40;80.20
46055;DHT22;31788;6.954;-71.872;2023-03-21T01:28:36;29.40;80.20
46055;DHT22;31788;6.954;-71.872;2023-03-21T01:31:03;29.40;80.30
46055;DHT22;31788;6.954;-71.872;2023-03-21T01:33:32;29.30;80.60
46055;DHT22;31788;6.954;-71.872;2023-03-21T01:35:59;29.30;80.20
46055;DHT22;31788;6.954;-71.872;2023-03-21T01:38:26;29.30;80.20
46055;DHT22;31788;6.954;-71.872;2023-03-21T01:40:54;29.40;80.20
46055;DHT22;31788;6.954;-71.872;2023-03-21T01:48:40;29.50;79.70
46055;DHT22;31788;6.954;-71.872;2023-03-21T01:51:11;29.50;79.90
46055;DHT22;31788;6.954;-71.872;2023-03-21T01:53:40;29.50;79.70
46055;DHT22;31788;6.954;-71.872;2023-03-21T01:56:26;29.50;79.40
46055;DHT22;31788;6.954;-71.872;2023-03-21T01:58:58;29.50;79.40
46055;DHT22;31788;6.954;-71.872;2023-03-21T02:01:29;29.50;79.70
46055;DHT22;31788;6.954;-71.872;2023-03-21T02:03:57;29.50;79.30
46055;DHT22;31788;6.954;-71.872;2023-03-21T02:06:42;29.40;79.30
46055;DHT22;31788;6.954;-71.872;2023-03-21T02:09:13;29.50;79.90
46055;DHT22;31788;6.954;-71.872;2023-03-21T02:11:43;29.50;80.60
46055;DHT22;31788;6.954;-71.872;2023-03-21T02:14:18;29.40;79.80
46055;DHT22;31788;6.954;-71.872;2023-03-21T02:28:39;29.40;79.60
46055;DHT22;31788;6.954;-71.872;2023-03-21T02:31:21;29.40;79.70
46055;DHT22;31788;6.954;-71.872;2023-03-21T02:37:18;29.40;79.50
46055;DHT22;31788;6.954;-71.872;2023-03-21T02:39:54;29.40;79.50
46055;DHT22;31788;6.954;-71.872;2023-03-21T02:42:29;29.40;79.70
46055;DHT22;31788;6.954;-71.872;2023-03-21T02:47:43;29.40;79.60
46055;DHT22;31788;6.954;-71.872;2023-03-21T02:50:41;29.40;79.60
46055;DHT22;31788;6.954;-71.872;2023-03-21T02:53:09;29.40;79.50
46055;DHT22;31788;6.954;-71.872;2023-03-21T02:55:37;29.40;79.80
46055;DHT22;31788;6.954;-71.872;2023-03-21T02:58:10;29.40;79.50
46055;DHT22;31788;6.954;-71.872;2023-03-21T03:00:38;29.40;79.50
46055;DHT22;31788;6.954;-71.872;2023-03-21T03:03:05;29.40;79.50
46055;DHT22;31788;6.954;-71.872;2023-03-21T03:05:34;29.40;79.70
46055;DHT22;31788;6.954;-71.872;2023-03-21T03:11:11;29.40;79.40
46055;DHT22;31788;6.954;-71.872;2023-03-21T03:23:04;29.30;79.70
46055;DHT22;31788;6.954;-71.872;2023-03-21T03:25:46;29.30;79.30
46055;DHT22;31788;6.954;-71.872;2023-03-21T03:28:19;29.30;79.30
46055;DHT22;31788;6.954;-71.872;2023-03-21T03:30:48;29.30;79.40
46055;DHT22;31788;6.954;-71.872;2023-03-21T03:33:17;29.30;79.50
46055;DHT22;31788;6.954;-71.872;2023-03-21T03:35:49;29.30;79.40
46055;DHT22;31788;6.954;-71.872;2023-03-21T03:38:18;29.30;80.00
46055;DHT22;31788;6.954;-71.872;2023-03-21T03:40:54;29.30;79.70
46055;DHT22;31788;6.954;-71.872;2023-03-21T03:43:31;29.30;80.00
46055;DHT22;31788;6.954;-71.872;2023-03-21T03:46:10;29.20;79.90
46055;DHT22;31788;6.954;-71.872;2023-03-21T03:48:46;29.20;79.90
46055;DHT22;31788;6.954;-71.872;2023-03-21T03:51:31;29.30;79.90
46055;DHT22;31788;6.954;-71.872;2023-03-21T03:54:07;29.20;79.70
46055;DHT22;31788;6.954;-71.872;2023-03-21T03:56:35;29.20;80.20
46055;DHT22;31788;6.954;-71.872;2023-03-21T03:59:04;29.20;80.10
46055;DHT22;31788;6.954;-71.872;2023-03-21T04:01:33;29.20;79.90
46055;DHT22;31788;6.954;-71.872;2023-03-21T04:04:00;29.20;80.10
46055;DHT22;31788;6.954;-71.872;2023-03-21T04:06:27;29.10;80.20
46055;DHT22;31788;6.954;-71.872;2023-03-21T04:08:55;29.20;80.00
46055;DHT22;31788;6.954;-71.872;2023-03-21T04:11:22;29.10;79.90
46055;DHT22;31788;6.954;-71.872;2023-03-21T04:13:48;29.10;80.50
46055;DHT22;31788;6.954;-71.872;2023-03-21T04:16:15;29.10;80.30
46055;DHT22;31788;6.954;-71.872;2023-03-21T04:18:42;29.10;80.30
46055;DHT22;31788;6.954;-71.872;2023-03-21T04:21:10;29.10;80.70
46055;DHT22;31788;6.954;-71.872;2023-03-21T04:23:38;29.00;80.40
46055;DHT22;31788;6.954;-71.872;2023-03-21T04:26:05;29.10;80.50
46055;DHT22;31788;6.954;-71.872;2023-03-21T04:28:32;29.10;80.70
46055;DHT22;31788;6.954;-71.872;2023-03-21T04:31:01;29.00;80.70
46055;DHT22;31788;6.954;-71.872;2023-03-21T04:33:29;29.00;80.80
46055;DHT22;31788;6.954;-71.872;2023-03-21T04:35:56;29.00;80.80
46055;DHT22;31788;6.954;-71.872;2023-03-21T04:38:27;28.90;80.90
46055;DHT22;31788;6.954;-71.872;2023-03-21T04:40:56;28.90;80.80
46055;DHT22;31788;6.954;-71.872;2023-03-21T04:43:23;28.90;80.80
46055;DHT22;31788;6.954;-71.872;2023-03-21T04:45:50;28.90;80.80
46055;DHT22;31788;6.954;-71.872;2023-03-21T04:48:17;28.90;81.20
46055;DHT22;31788;6.954;-71.872;2023-03-21T04:50:45;28.90;80.90
46055;DHT22;31788;6.954;-71.872;2023-03-21T04:53:12;28.90;81.00
46055;DHT22;31788;6.954;-71.872;2023-03-21T04:55:38;28.90;81.00
46055;DHT22;31788;6.954;-71.872;2023-03-21T04:58:05;28.90;80.90
46055;DHT22;31788;6.954;-71.872;2023-03-21T05:00:32;28.80;80.90
46055;DHT22;31788;6.954;-71.872;2023-03-21T05:03:06;28.90;81.00
46055;DHT22;31788;6.954;-71.872;2023-03-21T05:05:35;28.80;80.90
46055;DHT22;31788;6.954;-71.872;2023-03-21T05:08:03;28.80;80.90
46055;DHT22;31788;6.954;-71.872;2023-03-21T05:10:31;28.80;81.00
46055;DHT22;31788;6.954;-71.872;2023-03-21T05:12:57;28.80;80.90
46055;DHT22;31788;6.954;-71.872;2023-03-21T05:15:24;28.80;81.00
46055;DHT22;31788;6.954;-71.872;2023-03-21T05:17:50;28.80;80.80
46055;DHT22;31788;6.954;-71.872;2023-03-21T05:20:17;28.80;81.00
46055;DHT22;31788;6.954;-71.872;2023-03-21T05:22:44;28.80;81.00
46055;DHT22;31788;6.954;-71.872;2023-03-21T05:25:11;28.80;81.20
46055;DHT22;31788;6.954;-71.872;2023-03-21T05:27:38;28.80;81.10
46055;DHT22;31788;6.954;-71.872;2023-03-21T05:30:16;28.70;81.30
46055;DHT22;31788;6.954;-71.872;2023-03-21T05:32:43;28.70;81.30
46055;DHT22;31788;6.954;-71.872;2023-03-21T05:35:10;28.70;81.40
46055;DHT22;31788;6.954;-71.872;2023-03-21T05:37:37;28.70;81.30
46055;DHT22;31788;6.954;-71.872;2023-03-21T05:40:04;28.70;81.40
46055;DHT22;31788;6.954;-71.872;2023-03-21T05:42:32;28.70;81.70
46055;DHT22;31788;6.954;-71.872;2023-03-21T05:44:59;28.70;81.40
46055;DHT22;31788;6.954;-71.872;2023-03-21T05:47:25;28.70;81.40
46055;DHT22;31788;6.954;-71.872;2023-03-21T05:49:52;28.60;81.40
46055;DHT22;31788;6.954;-71.872;2023-03-21T05:52:19;28.70;81.40
46055;DHT22;31788;6.954;-71.872;2023-03-21T05:54:45;28.60;81.30
46055;DHT22;31788;6.954;-71.872;2023-03-21T05:57:12;28.60;81.20
46055;DHT22;31788;6.954;-71.872;2023-03-21T05:59:39;28.60;81.30
46055;DHT22;31788;6.954;-71.872;2023-03-21T06:02:06;28.60;81.40
46055;DHT22;31788;6.954;-71.872;2023-03-21T06:04:33;28.60;81.50
46055;DHT22;31788;6.954;-71.872;2023-03-21T06:07:00;28.60;81.50
46055;DHT22;31788;6.954;-71.872;2023-03-21T06:09:26;28.60;81.30
46055;DHT22;31788;6.954;-71.872;2023-03-21T06:11:54;28.60;81.90
46055;DHT22;31788;6.954;-71.872;2023-03-21T06:14:23;28.60;82.30
46055;DHT22;31788;6.954;-71.872;2023-03-21T06:16:51;28.60;81.80
46055;DHT22;31788;6.954;-71.872;2023-03-21T06:19:19;28.50;82.00
46055;DHT22;31788;6.954;-71.872;2023-03-21T06:21:47;28.50;82.20
46055;DHT22;31788;6.954;-71.872;2023-03-21T06:24:14;28.50;81.80
46055;DHT22;31788;6.954;-71.872;2023-03-21T06:26:41;28.50;82.30
46055;DHT22;31788;6.954;-71.872;2023-03-21T06:29:08;28.50;82.00
46055;DHT22;31788;6.954;-71.872;2023-03-21T06:31:35;28.50;81.90
46055;DHT22;31788;6.954;-71.872;2023-03-21T06:34:01;28.50;81.80
46055;DHT22;31788;6.954;-71.872;2023-03-21T06:36:28;28.50;82.20
46055;DHT22;31788;6.954;-71.872;2023-03-21T06:38:55;28.50;81.90
46055;DHT22;31788;6.954;-71.872;2023-03-21T06:41:21;28.50;82.10
46055;DHT22;31788;6.954;-71.872;2023-03-21T06:43:48;28.50;82.10
46055;DHT22;31788;6.954;-71.872;2023-03-21T06:46:14;28.50;82.10
46055;DHT22;31788;6.954;-71.872;2023-03-21T06:48:41;28.40;82.10
46055;DHT22;31788;6.954;-71.872;2023-03-21T06:51:11;28.40;82.00
46055;DHT22;31788;6.954;-71.872;2023-03-21T06:53:38;28.40;81.80
46055;DHT22;31788;6.954;-71.872;2023-03-21T06:56:08;28.40;81.90
46055;DHT22;31788;6.954;-71.872;2023-03-21T06:58:35;28.40;82.00
46055;DHT22;31788;6.954;-71.872;2023-03-21T07:01:02;28.40;81.80
46055;DHT22;31788;6.954;-71.872;2023-03-21T07:03:29;28.40;81.80
46055;DHT22;31788;6.954;-71.872;2023-03-21T07:05:56;28.40;82.00
46055;DHT22;31788;6.954;-71.872;2023-03-21T07:08:23;28.40;82.20
46055;DHT22;31788;6.954;-71.872;2023-03-21T07:10:50;28.40;82.10
46055;DHT22;31788;6.954;-71.872;2023-03-21T07:13:20;28.40;82.30
46055;DHT22;31788;6.954;-71.872;2023-03-21T07:15:47;28.40;82.20
46055;DHT22;31788;6.954;-71.872;2023-03-21T07:18:13;28.40;81.80
46055;DHT22;31788;6.954;-71.872;2023-03-21T07:20:40;28.30;82.50
46055;DHT22;31788;6.954;-71.872;2023-03-21T07:23:07;28.30;82.10
46055;DHT22;31788;6.954;-71.872;2023-03-21T07:25:33;28.30;82.50
46055;DHT22;31788;6.954;-71.872;2023-03-21T07:28:00;28.30;82.50
46055;DHT22;31788;6.954;-71.872;2023-03-21T07:30:27;28.20;82.40
46055;DHT22;31788;6.954;-71.872;2023-03-21T07:32:54;28.30;82.70
46055;DHT22;31788;6.954;-71.872;2023-03-21T07:35:21;28.20;82.60
46055;DHT22;31788;6.954;-71.872;2023-03-21T07:37:47;28.20;82.70
46055;DHT22;31788;6.954;-71.872;2023-03-21T07:40:14;28.20;82.70
46055;DHT22;31788;6.954;-71.872;2023-03-21T07:42:41;28.20;82.70
46055;DHT22;31788;6.954;-71.872;2023-03-21T07:45:09;28.20;83.40
46055;DHT22;31788;6.954;-71.872;2023-03-21T07:47:36;28.10;83.00
46055;DHT22;31788;6.954;-71.872;2023-03-21T07:50:03;28.10;82.90
46055;DHT22;31788;6.954;-71.872;2023-03-21T07:52:30;28.10;82.90
46055;DHT22;31788;6.954;-71.872;2023-03-21T07:54:56;28.10;83.00
46055;DHT22;31788;6.954;-71.872;2023-03-21T07:57:23;28.10;82.70
46055;DHT22;31788;6.954;-71.872;2023-03-21T07:59:49;28.10;82.80
46055;DHT22;31788;6.954;-71.872;2023-03-21T08:02:17;28.20;82.90
46055;DHT22;31788;6.954;-71.872;2023-03-21T08:04:44;28.10;82.90
46055;DHT22;31788;6.954;-71.872;2023-03-21T08:07:11;28.10;82.80
46055;DHT22;31788;6.954;-71.872;2023-03-21T08:09:38;28.10;83.40
46055;DHT22;31788;6.954;-71.872;2023-03-21T08:12:05;28.10;82.80
46055;DHT22;31788;6.954;-71.872;2023-03-21T08:14:34;28.10;82.80
46055;DHT22;31788;6.954;-71.872;2023-03-21T08:17:05;28.00;82.80
46055;DHT22;31788;6.954;-71.872;2023-03-21T08:19:32;28.00;82.90
46055;DHT22;31788;6.954;-71.872;2023-03-21T08:21:58;28.10;82.80
46055;DHT22;31788;6.954;-71.872;2023-03-21T08:24:26;28.10;82.80
46055;DHT22;31788;6.954;-71.872;2023-03-21T08:26:53;28.00;82.90
46055;DHT22;31788;6.954;-71.872;2023-03-21T08:29:20;28.00;82.80
46055;DHT22;31788;6.954;-71.872;2023-03-21T08:31:46;28.10;82.90
46055;DHT22;31788;6.954;-71.872;2023-03-21T08:34:13;28.00;82.80
46055;DHT22;31788;6.954;-71.872;2023-03-21T08:36:40;28.00;82.90
46055;DHT22;31788;6.954;-71.872;2023-03-21T08:39:07;28.00;83.10
46055;DHT22;31788;6.954;-71.872;2023-03-21T08:41:35;28.00;83.10
46055;DHT22;31788;6.954;-71.872;2023-03-21T08:44:03;28.00;83.70
46055;DHT22;31788;6.954;-71.872;2023-03-21T08:46:31;28.00;82.90
46055;DHT22;31788;6.954;-71.872;2023-03-21T08:48:57;28.00;82.90
46055;DHT22;31788;6.954;-71.872;2023-03-21T08:51:24;28.10;82.90
46055;DHT22;31788;6.954;-71.872;2023-03-21T08:53:50;28.00;82.80
46055;DHT22;31788;6.954;-71.872;2023-03-21T08:56:17;28.00;83.20
46055;DHT22;31788;6.954;-71.872;2023-03-21T08:58:44;28.00;83.30
46055;DHT22;31788;6.954;-71.872;2023-03-21T09:01:10;28.00;83.60
46055;DHT22;31788;6.954;-71.872;2023-03-21T09:03:41;28.00;83.20
46055;DHT22;31788;6.954;-71.872;2023-03-21T09:06:09;28.00;82.90
46055;DHT22;31788;6.954;-71.872;2023-03-21T09:08:37;28.00;82.90
46055;DHT22;31788;6.954;-71.872;2023-03-21T09:11:04;28.00;83.00
46055;DHT22;31788;6.954;-71.872;2023-03-21T09:13:31;28.00;83.00
46055;DHT22;31788;6.954;-71.872;2023-03-21T09:15:57;28.00;83.00
46055;DHT22;31788;6.954;-71.872;2023-03-21T09:18:27;28.00;82.80
46055;DHT22;31788;6.954;-71.872;2023-03-21T09:21:16;28.00;82.70
46055;DHT22;31788;6.954;-71.872;2023-03-21T09:23:44;28.10;82.80
46055;DHT22;31788;6.954;-71.872;2023-03-21T09:26:11;28.00;82.70
46055;DHT22;31788;6.954;-71.872;2023-03-21T09:28:38;28.00;83.00
46055;DHT22;31788;6.954;-71.872;2023-03-21T09:31:06;28.00;82.90
46055;DHT22;31788;6.954;-71.872;2023-03-21T09:33:36;28.00;83.80
46055;DHT22;31788;6.954;-71.872;2023-03-21T09:36:06;28.00;83.00
46055;DHT22;31788;6.954;-71.872;2023-03-21T09:38:37;28.00;83.20
46055;DHT22;31788;6.954;-71.872;2023-03-21T09:41:16;28.00;83.00
46055;DHT22;31788;6.954;-71.872;2023-03-21T09:49:30;28.00;83.60
46055;DHT22;31788;6.954;-71.872;2023-03-21T09:51:59;27.90;82.80
46055;DHT22;31788;6.954;-71.872;2023-03-21T09:54:40;27.90;83.20
46055;DHT22;31788;6.954;-71.872;2023-03-21T09:59:55;27.90;83.00
46055;DHT22;31788;6.954;-71.872;2023-03-21T10:04:59;27.90;83.10
46055;DHT22;31788;6.954;-71.872;2023-03-21T10:07:28;27.90;83.20
46055;DHT22;31788;6.954;-71.872;2023-03-21T10:09:59;27.90;82.90
46055;DHT22;31788;6.954;-71.872;2023-03-21T10:12:29;27.90;82.80
46055;DHT22;31788;6.954;-71.872;2023-03-21T10:14:58;27.90;82.40
46055;DHT22;31788;6.954;-71.872;2023-03-21T10:22:49;27.90;82.20
46055;DHT22;31788;6.954;-71.872;2023-03-21T10:25:26;27.90;82.20
46055;DHT22;31788;6.954;-71.872;2023-03-21T10:27:53;27.90;82.30
46055;DHT22;31788;6.954;-71.872;2023-03-21T10:33:21;27.90;82.10
46055;DHT22;31788;6.954;-71.872;2023-03-21T10:35:52;27.90;81.80
46055;DHT22;31788;6.954;-71.872;2023-03-21T10:38:22;27.90;82.60
46055;DHT22;31788;6.954;-71.872;2023-03-21T10:40:49;27.90;82.80
46055;DHT22;31788;6.954;-71.872;2023-03-21T10:45:52;27.80;82.90
46055;DHT22;31788;6.954;-71.872;2023-03-21T10:48:19;27.80;83.70
46055;DHT22;31788;6.954;-71.872;2023-03-21T10:50:48;27.70;83.60
46055;DHT22;31788;6.954;-71.872;2023-03-21T10:53:28;27.70;83.80
46055;DHT22;31788;6.954;-71.872;2023-03-21T10:55:58;27.70;83.70
46055;DHT22;31788;6.954;-71.872;2023-03-21T10:58:28;27.70;83.40
46055;DHT22;31788;6.954;-71.872;2023-03-21T11:01:04;27.70;83.80
46055;DHT22;31788;6.954;-71.872;2023-03-21T11:03:36;27.80;83.90
46055;DHT22;31788;6.954;-71.872;2023-03-21T11:08:49;27.70;84.30
46055;DHT22;31788;6.954;-71.872;2023-03-21T11:11:37;27.80;84.80
46055;DHT22;31788;6.954;-71.872;2023-03-21T11:14:06;27.70;84.80
46055;DHT22;31788;6.954;-71.872;2023-03-21T11:16:42;27.80;84.90
46055;DHT22;31788;6.954;-71.872;2023-03-21T11:19:35;27.80;84.90
46055;DHT22;31788;6.954;-71.872;2023-03-21T11:22:06;27.70;84.90
46055;DHT22;31788;6.954;-71.872;2023-03-21T11:24:33;27.80;85.00
46055;DHT22;31788;6.954;-71.872;2023-03-21T11:27:06;27.80;85.20
46055;DHT22;31788;6.954;-71.872;2023-03-21T11:29:44;27.80;86.40
46055;DHT22;31788;6.954;-71.872;2023-03-21T11:32:35;27.80;85.90
46055;DHT22;31788;6.954;-71.872;2023-03-21T11:35:22;27.90;85.40
46055;DHT22;31788;6.954;-71.872;2023-03-21T11:37:54;27.90;85.40
46055;DHT22;31788;6.954;-71.872;2023-03-21T11:40:27;27.90;85.80
46055;DHT22;31788;6.954;-71.872;2023-03-21T11:45:23;27.90;85.50
46055;DHT22;31788;6.954;-71.872;2023-03-21T11:47:53;27.90;85.90
46055;DHT22;31788;6.954;-71.872;2023-03-21T11:50:42;27.90;85.80
46055;DHT22;31788;6.954;-71.872;2023-03-21T12:12:38;28.00;87.10
46055;DHT22;31788;6.954;-71.872;2023-03-21T12:17:52;28.00;87.60
46055;DHT22;31788;6.954;-71.872;2023-03-21T12:31:06;28.00;88.70
46055;DHT22;31788;6.954;-71.872;2023-03-21T12:39:27;27.90;89.10
46055;DHT22;31788;6.954;-71.872;2023-03-21T12:42:08;27.90;89.20
46055;DHT22;31788;6.954;-71.872;2023-03-21T12:44:50;27.90;89.30
46055;DHT22;31788;6.954;-71.872;2023-03-21T12:47:23;27.90;89.40
46055;DHT22;31788;6.954;-71.872;2023-03-21T12:50:07;27.90;89.50
46055;DHT22;31788;6.954;-71.872;2023-03-21T12:52:41;27.90;89.60
46055;DHT22;31788;6.954;-71.872;2023-03-21T13:00:23;27.90;89.90
46055;DHT22;31788;6.954;-71.872;2023-03-21T13:05:28;27.90;90.20
46055;DHT22;31788;6.954;-71.872;2023-03-21T13:08:27;27.90;90.50
46055;DHT22;31788;6.954;-71.872;2023-03-21T13:10:56;27.90;90.70
46055;DHT22;31788;6.954;-71.872;2023-03-21T13:16:28;27.80;90.80
46055;DHT22;31788;6.954;-71.872;2023-03-21T13:19:11;27.80;91.00
46055;DHT22;31788;6.954;-71.872;2023-03-21T13:27:05;27.70;91.00
46055;DHT22;31788;6.954;-71.872;2023-03-21T13:29:45;27.80;91.10
46055;DHT22;31788;6.954;-71.872;2023-03-21T13:32:27;27.80;91.00
46055;DHT22;31788;6.954;-71.872;2023-03-21T13:34:58;27.80;90.80
46055;DHT22;31788;6.954;-71.872;2023-03-21T13:37:39;27.80;90.90
46055;DHT22;31788;6.954;-71.872;2023-03-21T13:40:25;27.80;90.90
46055;DHT22;31788;6.954;-71.872;2023-03-21T13:42:58;27.90;91.50
46055;DHT22;31788;6.954;-71.872;2023-03-21T13:45:32;27.90;91.40
46055;DHT22;31788;6.954;-71.872;2023-03-21T13:48:05;27.90;91.50
46055;DHT22;31788;6.954;-71.872;2023-03-21T13:50:58;27.90;91.50
46055;DHT22;31788;6.954;-71.872;2023-03-21T13:53:39;27.90;91.50
46055;DHT22;31788;6.954;-71.872;2023-03-21T14:01:33;27.80;91.40
46055;DHT22;31788;6.954;-71.872;2023-03-21T14:04:16;27.80;91.30
46055;DHT22;31788;6.954;-71.872;2023-03-21T14:06:53;27.90;91.30
46055;DHT22;31788;6.954;-71.872;2023-03-21T14:09:21;27.90;91.30
46055;DHT22;31788;6.954;-71.872;2023-03-21T14:11:50;27.90;91.20
46055;DHT22;31788;6.954;-71.872;2023-03-21T14:14:20;27.90;91.20
46055;DHT22;31788;6.954;-71.872;2023-03-21T14:16:47;27.90;91.10
46055;DHT22;31788;6.954;-71.872;2023-03-21T14:19:14;27.90;90.90
46055;DHT22;31788;6.954;-71.872;2023-03-21T14:21:48;27.90;90.80
46055;DHT22;31788;6.954;-71.872;2023-03-21T14:24:19;28.00;90.80
46055;DHT22;31788;6.954;-71.872;2023-03-21T14:26:50;28.00;90.70
46055;DHT22;31788;6.954;-71.872;2023-03-21T14:29:30;28.00;91.00
46055;DHT22;31788;6.954;-71.872;2023-03-21T14:31:58;28.10;90.50
46055;DHT22;31788;6.954;-71.872;2023-03-21T14:34:31;28.10;90.30
46055;DHT22;31788;6.954;-71.872;2023-03-21T14:36:58;28.10;90.40
46055;DHT22;31788;6.954;-71.872;2023-03-21T14:39:32;28.10;90.30
46055;DHT22;31788;6.954;-71.872;2023-03-21T14:44:48;28.10;90.20
46055;DHT22;31788;6.954;-71.872;2023-03-21T14:47:17;28.10;90.20
46055;DHT22;31788;6.954;-71.872;2023-03-21T14:49:44;28.10;90.20
46055;DHT22;31788;6.954;-71.872;2023-03-21T14:52:19;28.20;90.00
46055;DHT22;31788;6.954;-71.872;2023-03-21T14:54:47;28.20;89.50
46055;DHT22;31788;6.954;-71.872;2023-03-21T14:57:22;28.20;88.40
46055;DHT22;31788;6.954;-71.872;2023-03-21T14:59:53;28.20;88.00
46055;DHT22;31788;6.954;-71.872;2023-03-21T15:04:51;28.20;88.20
46055;DHT22;31788;6.954;-71.872;2023-03-21T15:07:33;28.20;87.30
46055;DHT22;31788;6.954;-71.872;2023-03-21T15:10:15;28.20;87.10
46055;DHT22;31788;6.954;-71.872;2023-03-21T15:12:55;28.20;87.10
46055;DHT22;31788;6.954;-71.872;2023-03-21T15:15:24;28.20;87.50
46055;DHT22;31788;6.954;-71.872;2023-03-21T15:17:51;28.20;87.10
46055;DHT22;31788;6.954;-71.872;2023-03-21T15:20:22;28.20;86.90
46055;DHT22;31788;6.954;-71.872;2023-03-21T15:22:53;28.20;87.30
46055;DHT22;31788;6.954;-71.872;2023-03-21T15:25:32;28.20;87.50
46055;DHT22;31788;6.954;-71.872;2023-03-21T15:28:00;28.20;87.60
46055;DHT22;31788;6.954;-71.872;2023-03-21T15:30:30;28.20;87.20
46055;DHT22;31788;6.954;-71.872;2023-03-21T15:33:06;28.30;87.40
46055;DHT22;31788;6.954;-71.872;2023-03-21T15:35:43;28.30;86.20
46055;DHT22;31788;6.954;-71.872;2023-03-21T15:38:37;28.30;86.70
46055;DHT22;31788;6.954;-71.872;2023-03-21T15:46:48;28.30;88.70
46055;DHT22;31788;6.954;-71.872;2023-03-21T15:49:17;28.30;89.10
46055;DHT22;31788;6.954;-71.872;2023-03-21T15:51:51;28.30;88.90
46055;DHT22;31788;6.954;-71.872;2023-03-21T15:57:31;28.40;89.30
46055;DHT22;31788;6.954;-71.872;2023-03-21T16:02:39;28.40;89.30
46055;DHT22;31788;6.954;-71.872;2023-03-21T16:05:31;28.40;89.40
46055;DHT22;31788;6.954;-71.872;2023-03-21T16:08:20;28.40;89.20
46055;DHT22;31788;6.954;-71.872;2023-03-21T16:10:47;28.40;89.10
46055;DHT22;31788;6.954;-71.872;2023-03-21T16:13:14;28.40;89.00
46055;DHT22;31788;6.954;-71.872;2023-03-21T16:15:43;28.50;89.00
46055;DHT22;31788;6.954;-71.872;2023-03-21T16:18:14;28.50;88.70
46055;DHT22;31788;6.954;-71.872;2023-03-21T16:20:43;28.50;88.30
46055;DHT22;31788;6.954;-71.872;2023-03-21T16:23:14;28.50;88.10
46055;DHT22;31788;6.954;-71.872;2023-03-21T16:25:42;28.60;87.80
46055;DHT22;31788;6.954;-71.872;2023-03-21T16:28:14;28.60;87.70
46055;DHT22;31788;6.954;-71.872;2023-03-21T16:30:41;28.60;88.20
46055;DHT22;31788;6.954;-71.872;2023-03-21T16:33:11;28.60;87.50
46055;DHT22;31788;6.954;-71.872;2023-03-21T16:35:38;28.70;87.50
46055;DHT22;31788;6.954;-71.872;2023-03-21T16:38:05;28.70;87.20
46055;DHT22;31788;6.954;-71.872;2023-03-21T16:40:34;28.70;87.20
46055;DHT22;31788;6.954;-71.872;2023-03-21T16:43:01;28.70;86.80
46055;DHT22;31788;6.954;-71.872;2023-03-21T16:45:28;28.80;87.10
46055;DHT22;31788;6.954;-71.872;2023-03-21T16:47:56;28.80;87.10
46055;DHT22;31788;6.954;-71.872;2023-03-21T16:50:33;28.80;86.80
46055;DHT22;31788;6.954;-71.872;2023-03-21T16:53:01;28.80;86.70
46055;DHT22;31788;6.954;-71.872;2023-03-21T16:55:28;28.90;86.90
46055;DHT22;31788;6.954;-71.872;2023-03-21T16:57:55;28.90;86.60
46055;DHT22;31788;6.954;-71.872;2023-03-21T17:00:25;28.90;86.30
46055;DHT22;31788;6.954;-71.872;2023-03-21T17:02:53;28.90;86.30
46055;DHT22;31788;6.954;-71.872;2023-03-21T17:05:29;29.00;86.30
46055;DHT22;31788;6.954;-71.872;2023-03-21T17:07:56;28.90;86.00
46055;DHT22;31788;6.954;-71.872;2023-03-21T17:10:29;29.00;85.90
46055;DHT22;31788;6.954;-71.872;2023-03-21T17:12:55;29.00;85.90
46055;DHT22;31788;6.954;-71.872;2023-03-21T17:15:22;29.00;85.70
46055;DHT22;31788;6.954;-71.872;2023-03-21T17:17:49;29.00;85.80
46055;DHT22;31788;6.954;-71.872;2023-03-21T17:20:19;29.00;85.50
46055;DHT22;31788;6.954;-71.872;2023-03-21T17:22:47;29.10;85.80
46055;DHT22;31788;6.954;-71.872;2023-03-21T17:25:14;29.00;85.90
46055;DHT22;31788;6.954;-71.872;2023-03-21T17:27:41;29.10;86.00
46055;DHT22;31788;6.954;-71.872;2023-03-21T17:30:23;29.10;85.80
46055;DHT22;31788;6.954;-71.872;2023-03-21T17:32:51;29.10;85.40
46055;DHT22;31788;6.954;-71.872;2023-03-21T17:35:18;29.10;85.60
46055;DHT22;31788;6.954;-71.872;2023-03-21T17:37:45;29.10;85.70
46055;DHT22;31788;6.954;-71.872;2023-03-21T17:40:21;29.10;85.50
46055;DHT22;31788;6.954;-71.872;2023-03-21T17:42:49;29.10;84.60
46055;DHT22;31788;6.954;-71.872;2023-03-21T17:45:16;29.10;84.90
46055;DHT22;31788;6.954;-71.872;2023-03-21T17:47:43;29.10;84.90
46055;DHT22;31788;6.954;-71.872;2023-03-21T17:50:21;29.10;85.10
46055;DHT22;31788;6.954;-71.872;2023-03-21T17:52:50;29.10;84.80
46055;DHT22;31788;6.954;-71.872;2023-03-21T17:55:18;29.10;84.90